Disclaimer   
PNR Super Search
 ♦ 
×
HashTag:
PNR Number:
Train Type:
Train:
From Station:
To Station:
Train Class:
2SSLCCEx3AFC2A1A3E
WL Quota:
DOJ From:
DOJ To:
Blogger:
Traveller:
Predictor:
Prediction:
WLRACConf
Stamper:
Final:
WLRACConfVoidQ-ConfUnStamped
Status:
Reaction:

Search
  Go  
 
Mon Mar 2, 2015 00:55:36 ISTHomeTrainsΣChainsAtlasPNRForumGalleryNewsFAQTripsMembersLoginFeedback
Mon Mar 2, 2015 00:55:36 IST
Post PNRPNR StatusModify Search

Ticket PNR Status Inquiry - PNR: 855-xxxxxxx (PRS)

OLD STATUS

Status Last Updated on: Jul 07 2012 (12:34PM) IST

Date of Journey: Sat Jul 07, 2012   Class: AC 3-tier - 3A   (Total Seats available for this Class/Quota: Avbl >6)
Passenger 1: Waitlist# 8 (Booking Status: W/L 21,RLGN)
Chart PREPARED

Mumbai LTT - Amritsar (Pathankot) Express/11057

Travel Time: 25h 25m    57 halts    Distance: 1205 km    Avg Speed: 47 km/hr
Type: Mail/Express
Zone: CR/Central
Departs @ 15:05 (Avg 44m late)
Platform# 2
SMTWTFS
BPL/Bhopal Junction 
Arrives @ 16:30 +1 night (Avg 2h 30m late)
Platform# 4
SMTWTFS
ASR/Amritsar Junction 

57 halts. 180 intermediate Stations between Bhopal Junction and Amritsar Junction

Show ALL intermediate Stations  Show Old Time-Table

#TrkCodeStation NameX/OArrivesAvgDepartsAvgHaltPFDay#KmSpeedElevZoneAddress
1/==/LTTMumbai Lokmanya Tilak Terminus  -23:45+231-824.6437mCR, Maharashtra
2/==/TNAThane  00:08+300:10+32m72-808.26110mCRThane (West) 400602, Maharashtra
3/==/KYNKalyan Junction  00:30+1200:33+153m42-787.96210mCRKalyan 421301, Maharashtra
4/==/KSRAKasaraXO  01:38+1401:40+192m12-720.525290mCRDist. Thane 421602, Maharashtra
5/==/IGPIgatpuriX  02:15+802:20+205m22-706.263589mCRIgatpuri 422403, Maharashtra
6/==/DVLDevlaliX  03:03+1403:05+162m12-661.269561mCRDist. Nashik 422401, Maharashtra
7/==/NKNasik RoadXO  03:10+1903:15+185m12-655.593563mCRNashik 422101, Maharashtra
8/==/MMRManmad JunctionX  04:02+2304:05+243m22-582.776580mCRManmad 423104, Maharashtra
9/==/CSNChalisgaon Junction  04:58+2105:00+242m--2-515.296352mCRChalisgaon 424101, Maharashtra
10/==/PCPachora JunctionX  05:28+2805:30+292m--2-470.487264mCRPachora 424201, Maharashtra
11/==/JLJalgaon JunctionX  06:03+3106:05+322m32-422.658213mCRJalgaon 425001, Maharashtra
12/==/BSLBhusaval JunctionX  06:30+3506:45+3515m62-398.551208mCRBhusaval 425201, Maharashtra
13/==/SAVSavdaXO  07:03+3607:05+352m--2-383.1105220mCRSavda, Maharashtra
14/==/NBNimbhoraXO  07:10+3807:12+382m--2-374.476229mCRJalgaon, Maharashtra
15/==/RVRaverX  07:20+4007:22+402m--2-364.276242mCRJalgaon, Maharashtra
16/==/BAUBurhanpur  07:38+4107:40+412m22-344.087269mCRBurhanpur, Madhya Pradesh
17/==/NPNRNepanagar  07:58+4408:00+442m--2-317.830289mCRState Highway 27, Madhya Pradesh
18/==/KNWKhandwa JunctionX  09:25+209:30+65m22-275.241310mCRKhandwa, Madhya Pradesh
19/==/TLVTalvadiya JunctionXO  09:53+209:55+62m--2-259.499308mWCRJn Point-Mathela/Khaigaon/Surgaon Banjari, Madhya Pradesh
20/==/CAERChhaneraXO  10:13+1110:15+142m--2-229.888283mWCRChhanera, Madhya Pradesh
21/==/KKNKhirkiyaX  10:36+1510:38+202m22-199.173281mWCRSH 15, Madhya Pradesh
22/==/HDHarda  11:04+1911:06+192m--2-167.561289mWCRHarda, Madhya Pradesh
23/==/TBNTimarni  11:20+1911:22+262m--2-153.440308mWCRTimarni, Madhya Pradesh
24/==/BPFBanapura  12:04+712:06+122m--2-125.251314mWCRBanapura, Madhya Pradesh
25/==/ETItarsi JunctionX  12:45+1612:50+235m12-91.768329mWCRItarsi 461111, Madhya Pradesh
26/==/HBDHoshangabadX  13:06+2913:08+292m--2-73.642308mWCRHoshangabad, Madhya Pradesh
27/==/BNIBudni  13:18+3213:20+372m--2-66.749311mWCRSehore 466445 Madhya pradesh, Madhya Pradesh
28/==/ODGObaidulla GanjO  13:58+4614:00+462m22-35.958448mWCRObaidullaganj Raisen Dist., Madhya Pradesh
29/==/MDDPMandi Dip  14:14+4514:16+452m12-22.457455mWCRMandideep, Madhya Pradesh
30/==/HBJBhopal HabibGanjX  14:33+4614:35+472m12-6.215496mWCRHabibGanj, Madhya Pradesh
31/==/BPLBhopal Junction»  15:00+3815:05+445m220.074497mWCRBhopal, Madhya Pradesh
32/==/SCISanchiXO  15:41+5015:43+512m2244.143428mWCRRaisen, Madhya Pradesh
33/==/BHSVidisha  15:56+4215:58+422m1253.570433mWCRVidisha, Madhya Pradesh
34/==/GLGGulabhGanj  16:16+5516:18+542m1274.592433mWCRVidisha, Madhya Pradesh
35/==/BAQGanj BasodaX  16:30+4516:32+452m1292.871415mWCRVidisha, Madhya Pradesh
36/==/MABAMandi BamoraXO  16:56+5816:58+582m12121.325413mWCRState Highway 14, Madhya Pradesh
37/==/BINABina JunctionX  17:40+3617:45+385m32138.658414mWCRJn Pt - KATNI/GUNA/ BPL/JHS, Madhya Pradesh
38/==/DUADhauraX  18:21+5718:23+582m--2173.258407mNCRDhaura Tanda, Madhya Pradesh
39/==/JLNJakhalaun  18:35+5718:37+572m12184.772394mNCRLalitpur(05176-272220), Uttar Pradesh
40/==/LARLalitpur  18:51+5918:53+1:002m32201.586373mNCRLalitpur, Uttar Pradesh
41/==/TBTTalbahatX  19:21+1:0519:23+1:052m32241.459314mNCRKhaniyadhana Station Rd, Madhya Pradesh
42/==/BZYBasaiX  19:36+1:0419:38+1:042m22254.260287mNCR07522289600(Gate ManMob. - 9452701575), Madhya Pradesh
43/==/BABBabinaX  19:50+1:0619:52+1:062m12266.340285mNCRBabina, Uttar Pradesh
44/==/JHSJhansi JunctionX  20:30+1:0520:38+1:118m52291.868259mNCRJhansi, Uttar Pradesh
45/==/DAADatiaX  21:00+1:1821:02+1:182m--2316.863264mNCRDatia, Madhya Pradesh
46/==/SORSonagirX  21:13+1:1921:15+1:202m--2328.471211mNCRDatia, Madhya Pradesh
47/==/DBADabraX  21:31+1:2421:33+1:252m--2347.269207mNCRDabra(District-Gwalior), Madhya Pradesh
48/==/GWLGwalior JunctionX  22:10+1:2822:18+1:268m22389.593214mNCRGwalior, Madhya Pradesh
49/==/MRAMorenaX  22:43+1:4122:45+1:432m22428.170176mNCRMorena, Madhya Pradesh
50/==/DHODholpur JunctionX  23:08+1:4923:10+1:512m12454.954177mNCRDholpur, Rajasthan
51/==/AGCAgra Cantt.X  00:08+2:0400:16+2:088m23507.527174mNCRAgra, Uttar Pradesh
52/==/RKMRaja Ki Mandi  00:25+2:1700:27+2:172m13511.569170mNCRAgra, Uttar Pradesh
53/==/MTJMathura JunctionX  01:10+2:3101:15+2:325m33561.275179mNCRMathura, Uttar Pradesh
54/==/KSVKosi Kalan  01:48+2:4101:50+2:422m13602.744189mNCRKosi Kalan, Uttar Pradesh
55/==/PWLPalwal  02:48+2:2402:50+2:252m--3645.171200mNRPalwal, Haryana
56/==/BVHBallabgarh  03:08+2:3503:10+2:352m33666.344203mNRFaridabad, Haryana
57/==/FDBFaridabad  03:21+2:3603:23+2:362m23674.452206mNRold Faridabad, Haryana
58/==/NZMDelhi Hazrat NizamuddinX  03:47+2:3603:49+2:362m33695.217209mNRNew Delhi 110013, Delhi NCT
59/==/NDLSNew Delhi  04:15+2:3604:30+2:3815m23702.515215mNRNew Delhi 110002, Delhi NCT
60/==/SZMDelhi Sabzi Mandi  04:46+2:4104:48+2:412m--3706.749220mNRGulabi Bagh, Delhi NCT
61/==/BHDBadliXO  05:01+2:5005:03+2:512m--3717.351217mNRRohini, Delhi NCT
62/==/NURNarelaX  05:18+2:5505:20+2:572m--3729.937222mNRNarela, Delhi NCT
63/==/SNPSonipatX  05:48+2:5305:50+2:572m--3747.060225mNRSonipat, Haryana
64/==/GNUGanaur  06:06+2:4806:08+2:522m--3762.957222mNRGanaur, Haryana
65/==/SMKSamalkha  06:21+2:4706:23+2:512m--3775.254229mNRSamalkha, Haryana
66/==/PNPPanipat Junction  06:42+2:5006:44+2:512m33792.264235mNRPanipat, Haryana
67/==/GRAGharaunda  07:00+2:4207:02+2:432m--3809.166244mNRGharaunda, Haryana
68/==/KUNKarnal  07:18+2:4707:20+2:472m23826.652253mNRKarnal, Haryana
69/==/TRRTaraori  07:34+2:3907:35+2:421m--3838.726255mNRTaraori, Haryana
70/==/NLKRNilokheriXO  07:44+2:3807:45+2:431m--3842.634254mNRNilokheri, Haryana
71/==/KKDEKurukshetra Junction  08:15+2:3208:17+2:332m13859.778260mNRKurukshetra, Haryana
72/==/SHDMShahbad MarkandaX  08:34+1:5908:36+2:032m23881.927267mNRShahabad Markanda, Haryana
73/==/UMBAmbala Cantt. JunctionX09:20+2:3809:40+2:3820m63901.838278mNRAmbala 133001, Haryana
74/==/UBCAmbala CityX  09:52+2:3209:54+2:342m33909.382273mNRNH-1, Haryana
75/==/RPJRajpura Junction  10:09+2:4910:11+2:502m13929.855272mNRNH-1., Punjab
76|--|PTAPatialaX  10:38+2:4910:40+2:522m13954.752256mNRPatiala, Punjab
77|--|NBANabha  11:10+2:4311:12+2:452m13980.549250mNRNabha, Punjab
78|--|DUIDhuri Junction  11:45+2:4011:50+2:405m--31007.472248mNRDhuri, Punjab
79|--|METMalerkotlaX  12:04+2:4112:06+2:412m131024.228248mNRMalerkotla., Punjab
80|--|AHHAhmadgarh  12:48+2:1612:50+2:162m131044.144256mNRAhmedgarh, Punjab
81|--|LDHLudhiana JunctionX  13:25+2:3113:35+2:4110m331069.534246mNRLudhiana 141001, Punjab
82/==/PHRPhillaur JunctionX  13:58+2:1814:00+2:182m231082.664246mNRPhillaur, Punjab
83/==/GRYGorayaX  14:12+2:1514:14+2:152m231095.354240mNRGoraya, Punjab
84/==/PGWPhagwara JunctionX  14:25+2:1814:27+2:182m231105.270245mNRPhagwara, Punjab
85/==/JRCJalandhar Cantt. JunctionX  14:41+2:3214:43+2:322m131121.524239mNRNear Rama Mandi, Punjab
86/==/JUCJalandhar City Junction  14:55+2:4115:00+2:465m131126.356239mNRJalandhar 144001, Punjab
87/==/BEASBeas JunctionX  15:39+2:2315:41+2:232m131162.480238mNRBeas, Punjab
88/==/JNLJandialaX  15:59+2:1316:01+2:132m131186.340238mNRJandiala, Punjab
89/==/ASRAmritsar Junction•  16:30+2:30-431205.4-233mNRAmritsar 143002, Punjab
Scroll to Top
Scroll to Bottom


Go to Mobile site